Time;durP1;ratioP1;P1;durP2;ratioP2;P2;SDS_P1;SDS_P2;PMS_P1;PMS_P2;Temp;Humidity;BMP_temperature;BMP_pressure;BME280_temperature;BME280_humidity;BME280_pressure;Samples;Min_cycle;Max_cycle;Signal;HPM_P1;HPM_P2
2022/06/05 00:00:10;;;;;;;18.88;5.38;;;;;;;11.83;67.76;101155.41;5077273;28;20153;-50
2022/06/05 00:02:52;;;;;;;11.70;5.15;;;;;;;11.80;67.52;101153.06;5095264;28;20540;-50
2022/06/05 00:05:27;;;;;;;11.13;5.13;;;;;;;11.64;68.20;101156.75;5095408;28;20047;-51
2022/06/05 00:08:33;;;;;;;14.13;5.70;;;;;;;11.69;69.67;101157.03;5095503;28;20031;-51
2022/06/05 00:11:00;;;;;;;15.48;6.07;;;;;;;11.59;69.13;101157.31;5069303;28;20035;-50
2022/06/05 00:13:37;;;;;;;11.00;4.97;;;;;;;11.62;70.79;101158.78;5095324;28;20048;-51
2022/06/05 00:16:04;;;;;;;9.07;5.70;;;;;;;11.56;71.31;101165.72;5095175;28;20032;-49
2022/06/05 00:18:35;;;;;;;9.07;5.55;;;;;;;11.44;71.41;101153.75;5095536;28;20320;-49
2022/06/05 00:21:01;;;;;;;8.98;5.90;;;;;;;11.51;70.97;101149.31;5095183;28;20437;-52
2022/06/05 00:23:27;;;;;;;11.98;6.10;;;;;;;11.67;71.77;101175.22;5093096;28;20024;-50
2022/06/05 00:26:17;;;;;;;11.73;6.10;;;;;;;11.68;71.26;101159.91;5075107;28;20431;-52
2022/06/05 00:29:12;;;;;;;10.52;6.00;;;;;;;11.74;72.66;101161.88;5059999;28;20130;-51
2022/06/05 00:32:02;;;;;;;12.25;6.25;;;;;;;11.73;72.15;101158.34;5044118;28;20493;-54
2022/06/05 00:34:28;;;;;;;14.98;6.65;;;;;;;11.67;71.77;101148.31;5074642;28;20036;-53
2022/06/05 00:37:18;;;;;;;11.68;5.43;;;;;;;11.79;72.05;101154.06;5056584;28;20032;-55
2022/06/05 00:40:18;;;;;;;12.95;5.93;;;;;;;11.79;72.49;101151.38;5060691;28;20036;-54
2022/06/05 00:42:45;;;;;;;13.13;6.90;;;;;;;11.56;73.76;101154.16;5062130;28;20032;-55
2022/06/05 00:45:13;;;;;;;26.33;7.25;;;;;;;11.51;74.21;101145.78;5056895;28;20480;-47
2022/06/05 00:47:41;;;;;;;16.90;7.22;;;;;;;11.37;74.52;101128.63;5074460;28;20036;-48
2022/06/05 00:50:14;;;;;;;11.82;7.43;;;;;;;11.40;75.23;101136.28;5074468;28;20033;-48
2022/06/05 00:52:47;;;;;;;10.30;5.72;;;;;;;11.35;74.86;101112.66;5074399;28;20396;-48
2022/06/05 00:55:14;;;;;;;15.38;7.70;;;;;;;11.49;74.20;101131.69;5056622;28;20029;-48
2022/06/05 00:57:40;;;;;;;23.50;7.53;;;;;;;11.38;75.33;101128.41;5074323;28;20033;-47
2022/06/05 01:00:14;;;;;;;16.80;7.63;;;;;;;11.41;75.59;101146.88;5074260;28;20031;-48
2022/06/05 01:02:42;;;;;;;10.10;6.43;;;;;;;11.46;75.47;101140.97;5075906;28;20036;-48
2022/06/05 01:05:10;;;;;;;14.82;7.50;;;;;;;11.46;74.55;101148.19;5056916;28;20400;-48
2022/06/05 01:07:36;;;;;;;15.20;7.50;;;;;;;11.35;75.67;101144.94;5074099;28;20029;-48
2022/06/05 01:10:03;;;;;;;13.85;7.53;;;;;;;11.34;76.16;101139.72;5074099;28;20067;-49
2022/06/05 01:12:55;;;;;;;14.50;7.65;;;;;;;11.17;77.29;101112.97;5056059;28;20036;-51
2022/06/05 01:15:34;;;;;;;16.90;8.00;;;;;;;11.04;77.92;101108.22;5059217;28;20086;-52
2022/06/05 01:18:36;;;;;;;14.38;8.10;;;;;;;11.06;78.24;101115.28;5057423;28;20089;-49
2022/06/05 01:21:32;;;;;;;12.60;7.25;;;;;;;11.15;78.29;101103.44;5059241;28;20040;-49
2022/06/05 01:24:17;;;;;;;;;;;;;;;11.14;78.61;101097.19;5060920;28;20485;-49
2022/06/05 01:26:52;;;;;;;13.88;7.70;;;;;;;11.09;79.15;101090.69;5060134;28;19939;-48
2022/06/05 01:29:25;;;;;;;11.00;7.15;;;;;;;11.13;77.86;101087.47;5074783;28;20390;-48
2022/06/05 01:31:58;;;;;;;10.65;8.00;;;;;;;11.04;79.66;101102.00;5056908;28;20519;-47
2022/06/05 01:34:32;;;;;;;11.02;7.32;;;;;;;10.89;79.67;101083.16;5056425;28;20040;-48
2022/06/05 01:37:09;;;;;;;19.27;9.45;;;;;;;10.95;79.98;101097.72;5074570;28;20051;-48
2022/06/05 01:39:45;;;;;;;26.55;9.40;;;;;;;11.00;79.49;101084.59;5074306;28;20082;-48
2022/06/05 01:42:19;;;;;;;16.15;8.65;;;;;;;10.81;81.68;101083.22;5075109;28;20063;-48
2022/06/05 01:44:49;;;;;;;17.15;9.15;;;;;;;10.80;81.77;101073.47;5074387;28;20078;-48
2022/06/05 01:47:21;;;;;;;12.77;8.18;;;;;;;10.92;80.99;101072.06;5073899;28;20094;-49
2022/06/05 01:49:59;;;;;;;11.98;8.02;;;;;;;11.06;80.05;101066.91;5074142;28;20036;-48
2022/06/05 01:52:29;;;;;;;13.00;8.00;;;;;;;10.99;80.04;101064.91;5073797;28;20400;-48
2022/06/05 01:55:09;;;;;;;15.52;7.22;;;;;;;11.00;79.81;101038.91;5073447;28;20029;-48
2022/06/05 01:57:36;;;;;;;12.23;8.25;;;;;;;11.20;79.54;101063.41;5073544;28;20033;-49
2022/06/05 02:00:18;;;;;;;15.75;7.70;;;;;;;11.29;78.46;101062.31;5073622;28;20058;-52
2022/06/05 02:03:08;;;;;;;12.65;6.50;;;;;;;11.29;78.22;101061.44;5055125;28;20472;-49
2022/06/05 02:05:43;;;;;;;14.77;8.02;;;;;;;11.16;78.53;101051.31;5059450;28;20062;-48
2022/06/05 02:08:16;;;;;;;16.05;8.00;;;;;;;11.26;78.28;101051.91;5055723;28;20381;-49
2022/06/05 02:10:51;;;;;;;15.95;8.40;;;;;;;11.13;79.28;101049.84;5073985;28;20115;-48
2022/06/05 02:13:18;;;;;;;10.82;7.22;;;;;;;11.19;79.24;101059.03;5072993;28;20037;-47
2022/06/05 02:15:44;;;;;;;11.85;7.88;;;;;;;11.25;78.29;101052.91;5077763;28;20032;-49
2022/06/05 02:18:12;;;;;;;20.80;8.23;;;;;;;11.13;78.69;101049.84;5075333;28;20059;-49
2022/06/05 02:20:38;;;;;;;12.43;8.68;;;;;;;11.04;79.92;101038.31;5075878;28;20048;-52
2022/06/05 02:23:06;;;;;;;17.88;9.88;;;;;;;10.88;79.81;101032.28;5075851;28;20036;-48
2022/06/05 02:25:34;;;;;;;15.10;9.25;;;;;;;10.91;79.95;101021.16;5075494;28;20146;-48
2022/06/05 02:28:01;;;;;;;15.45;8.75;;;;;;;10.91;80.97;101027.38;5075186;28;20028;-48
2022/06/05 02:30:43;;;;;;;10.07;8.70;;;;;;;10.78;81.63;101022.63;5041989;28;20036;-49
2022/06/05 02:33:21;;;;;;;18.02;8.70;;;;;;;10.70;81.11;101006.56;5076270;28;20102;-49
2022/06/05 02:36:00;;;;;;;13.20;7.53;;;;;;;10.88;81.52;101013.47;5076248;28;20047;-48
2022/06/05 02:38:50;;;;;;;16.70;8.85;;;;;;;10.71;82.46;100996.66;5075657;28;20028;-48
2022/06/05 02:41:34;;;;;;;13.75;8.82;;;;;;;10.70;82.89;101003.03;5075023;28;20354;-54
2022/06/05 02:47:14;;;;;;;14.77;9.05;;;;;;;10.63;82.19;100979.59;5058767;28;20036;-53
2022/06/05 02:49:48;;;;;;;13.40;9.30;;;;;;;10.65;82.45;100974.03;5073021;28;20024;-48
2022/06/05 02:52:14;;;;;;;13.60;9.53;;;;;;;10.65;81.98;100969.50;5055704;28;20028;-48
2022/06/05 02:54:46;;;;;;;11.65;8.18;;;;;;;10.71;82.23;100967.94;5055018;28;20048;-48
2022/06/05 02:57:13;;;;;;;15.77;9.93;;;;;;;10.62;81.99;100972.56;5073313;28;20033;-48
2022/06/05 02:59:39;;;;;;;11.52;8.43;;;;;;;10.70;82.65;100960.06;5073753;28;20037;-48
2022/06/05 03:04:51;;;;;;;11.98;8.00;;;;;;;10.56;82.07;100949.09;5058160;28;20024;-48
2022/06/05 03:07:17;;;;;;;12.57;9.38;;;;;;;10.45;83.48;100936.94;5072532;28;20376;-48
2022/06/05 03:09:42;;;;;;;13.73;9.27;;;;;;;10.72;82.41;100945.44;5072465;28;20044;-48
2022/06/05 03:12:08;;;;;;;11.27;8.95;;;;;;;10.72;81.91;100950.00;5072593;28;20064;-48
2022/06/05 03:14:34;;;;;;;12.25;8.70;;;;;;;10.73;82.70;100949.78;5073653;28;20169;-48
2022/06/05 03:17:00;;;;;;;10.43;8.98;;;;;;;10.64;81.32;100930.25;5076328;28;20365;-49
2022/06/05 03:19:27;;;;;;;10.05;8.98;;;;;;;10.63;82.18;100925.88;5058379;28;20070;-48
2022/06/05 03:21:53;;;;;;;11.23;9.05;;;;;;;10.56;82.85;100932.16;5058745;28;20073;-48
2022/06/05 03:24:18;;;;;;;11.77;8.20;;;;;;;10.68;82.21;100937.91;5067089;28;20039;-48
2022/06/05 03:26:45;;;;;;;14.82;9.15;;;;;;;10.49;83.65;100915.94;5096373;28;20426;-49
2022/06/05 03:29:11;;;;;;;13.27;9.85;;;;;;;10.49;82.47;100915.94;5096338;28;20036;-48
2022/06/05 03:31:38;;;;;;;17.67;9.82;;;;;;;10.43;83.78;100917.50;5096316;28;20051;-49
2022/06/05 03:34:04;;;;;;;10.18;8.20;;;;;;;10.54;83.93;100910.84;5078362;28;20286;-48
2022/06/05 03:36:30;;;;;;;12.00;9.73;;;;;;;10.54;82.64;100900.13;5096473;28;20028;-48
2022/06/05 03:38:56;;;;;;;14.48;9.35;;;;;;;10.52;83.50;100907.53;5098228;28;20035;-48
2022/06/05 03:41:21;;;;;;;12.02;8.88;;;;;;;10.60;83.09;100910.13;5097696;28;20307;-49
2022/06/05 03:43:48;;;;;;;9.15;7.53;;;;;;;10.58;82.36;100893.34;5097649;28;20027;-49
2022/06/05 03:46:16;;;;;;;13.25;8.55;;;;;;;10.73;82.51;100914.03;5101600;28;20035;-52
2022/06/05 03:48:42;;;;;;;10.20;8.98;;;;;;;10.37;82.87;100874.44;5105597;28;20081;-48
2022/06/05 03:51:12;;;;;;;8.82;7.45;;;;;;;10.68;82.53;100929.84;5083413;28;20046;-51
2022/06/05 03:53:38;;;;;;;11.13;8.90;;;;;;;10.55;82.86;100928.66;5096251;28;20579;-49
2022/06/05 03:56:09;;;;;;;8.27;7.47;;;;;;;10.55;83.59;100925.97;5078820;28;20123;-53
2022/06/05 03:58:36;;;;;;;11.57;8.13;;;;;;;10.72;82.50;100942.75;5097028;28;20031;-52
2022/06/05 04:01:03;;;;;;;10.00;7.57;;;;;;;10.74;82.21;100951.47;5096483;28;20126;-48
2022/06/05 04:03:29;;;;;;;9.80;7.25;;;;;;;10.69;82.75;100935.06;5097387;28;20052;-49
2022/06/05 04:05:55;;;;;;;7.05;6.35;;;;;;;10.72;82.41;100931.19;5097909;28;20035;-49
2022/06/05 04:08:20;;;;;;;6.18;5.68;;;;;;;10.88;81.79;100963.25;5078302;28;20036;-48
2022/06/05 04:10:46;;;;;;;8.38;6.45;;;;;;;10.79;81.69;100961.66;5096540;28;20073;-48
2022/06/05 04:13:12;;;;;;;10.15;5.50;;;;;;;10.83;81.71;100968.34;5028317;28;20128;-48
2022/06/05 04:15:39;;;;;;;5.70;4.70;;;;;;;10.97;80.72;100993.56;5078303;28;20028;-48
2022/06/05 04:18:06;;;;;;;5.22;4.82;;;;;;;10.90;81.59;101012.28;5078083;28;20388;-48
2022/06/05 04:20:32;;;;;;;8.23;4.70;;;;;;;10.94;81.06;101001.97;5077964;28;20036;-48
2022/06/05 04:22:58;;;;;;;6.82;4.93;;;;;;;10.92;81.27;101004.88;5077789;28;20534;-48
2022/06/05 04:25:25;;;;;;;3.95;3.65;;;;;;;11.08;80.30;101000.34;5078229;28;20079;-49
2022/06/05 04:27:51;;;;;;;4.63;4.22;;;;;;;11.18;79.59;100987.44;5078649;28;20032;-48
2022/06/05 04:30:18;;;;;;;4.93;4.43;;;;;;;11.17;80.12;100980.44;5076452;28;20029;-49
2022/06/05 04:32:43;;;;;;;3.53;3.30;;;;;;;11.23;79.25;100985.06;5075515;28;20050;-48
2022/06/05 04:35:10;;;;;;;5.28;4.78;;;;;;;11.23;79.38;100966.22;5075017;28;20028;-49
2022/06/05 04:37:36;;;;;;;5.53;4.40;;;;;;;11.19;80.73;100946.94;5057229;28;20040;-48
2022/06/05 04:40:04;;;;;;;5.90;5.30;;;;;;;11.21;79.63;100957.53;5075402;28;20167;-48
2022/06/05 04:42:30;;;;;;;5.35;4.95;;;;;;;11.07;80.75;100944.91;5057531;28;20429;-49
2022/06/05 04:44:57;;;;;;;5.75;5.30;;;;;;;10.88;81.75;100941.75;5057730;28;20020;-48
2022/06/05 04:47:23;;;;;;;5.88;5.30;;;;;;;10.81;82.26;100935.47;5075289;28;20025;-49
2022/06/05 04:49:48;;;;;;;6.22;4.50;;;;;;;10.82;82.63;100937.13;5075122;28;20039;-48
2022/06/05 04:52:14;;;;;;;5.25;4.70;;;;;;;10.68;82.65;100951.34;5074902;28;20036;-48
2022/06/05 04:54:41;;;;;;;5.00;4.43;;;;;;;10.65;83.95;100952.56;5057121;28;20045;-49
2022/06/05 04:57:07;;;;;;;6.97;5.20;;;;;;;10.68;83.63;100962.09;5075126;28;20025;-48
2022/06/05 04:59:32;;;;;;;6.30;5.75;;;;;;;10.56;83.75;100942.91;5074829;28;20094;-49
2022/06/05 05:01:58;;;;;;;6.30;5.35;;;;;;;10.52;85.19;100945.13;5056935;28;20378;-49
2022/06/05 05:04:25;;;;;;;6.13;5.53;;;;;;;10.57;84.89;100956.16;5057315;28;20032;-49
2022/06/05 05:06:51;;;;;;;9.43;6.20;;;;;;;10.59;85.24;100954.13;5057701;28;20032;-49
2022/06/05 05:09:16;;;;;;;6.85;6.22;;;;;;;10.50;85.40;100949.00;5075070;28;20540;-49
2022/06/05 05:11:43;;;;;;;12.73;6.28;;;;;;;10.55;85.18;100950.13;5057073;28;20051;-49
2022/06/05 05:14:10;;;;;;;7.25;6.22;;;;;;;10.55;85.61;100952.81;5075569;28;20028;-49
2022/06/05 05:16:36;;;;;;;7.32;6.63;;;;;;;10.67;84.57;100960.44;5076274;28;20047;-51
2022/06/05 05:19:02;;;;;;;5.18;4.78;;;;;;;10.74;84.34;100959.53;5079301;28;20024;-49
2022/06/05 05:21:28;;;;;;;5.63;4.75;;;;;;;10.73;84.08;100948.94;5060212;28;20238;-51
2022/06/05 05:23:55;;;;;;;6.13;5.15;;;;;;;10.84;83.73;100957.41;5087601;28;20071;-53
2022/06/05 05:26:25;;;;;;;6.15;5.47;;;;;;;10.85;83.65;100947.50;5086897;28;20028;-51
2022/06/05 05:28:52;;;;;;;9.32;6.05;;;;;;;10.92;83.13;100952.97;5067667;28;20032;-53
2022/06/05 05:31:29;;;;;;;10.40;6.70;;;;;;;10.90;83.42;100941.56;5063544;28;20043;-50
2022/06/05 05:33:56;;;;;;;5.93;5.32;;;;;;;10.98;82.76;100942.31;5078698;28;20048;-53
2022/06/05 05:36:24;;;;;;;8.27;6.55;;;;;;;10.90;82.66;100944.25;5060021;28;20385;-51
2022/06/05 05:44:23;;;;;;;8.82;7.22;;;;;;;10.67;84.68;100944.31;5062163;28;20029;-53
2022/06/05 05:46:48;;;;;;;8.48;6.35;;;;;;;10.74;84.99;100950.63;5059855;28;20086;-52
2022/06/05 05:49:15;;;;;;;7.40;6.57;;;;;;;10.77;85.02;100956.47;5077339;28;20082;-49
2022/06/05 05:51:42;;;;;;;6.65;6.05;;;;;;;10.87;83.76;100961.59;5075887;28;20445;-49
2022/06/05 05:54:08;;;;;;;6.65;6.05;;;;;;;10.81;84.29;100962.31;5075146;28;20032;-51
2022/06/05 05:56:35;;;;;;;5.95;5.47;;;;;;;10.95;83.46;100964.19;5056653;28;20503;-48
2022/06/05 05:59:01;;;;;;;6.47;5.70;;;;;;;10.97;83.46;100964.00;5074340;28;20469;-48
2022/06/05 06:01:27;;;;;;;6.78;4.93;;;;;;;11.08;83.01;100979.66;5074458;28;20062;-50
2022/06/05 06:03:53;;;;;;;5.95;5.00;;;;;;;11.15;82.11;100979.78;5074546;28;20033;-48
2022/06/05 06:06:25;;;;;;;5.57;5.07;;;;;;;11.18;81.53;100971.31;5074192;28;20107;-48
2022/06/05 06:08:51;;;;;;;6.15;5.55;;;;;;;11.14;82.53;100978.09;5074563;28;20468;-49
2022/06/05 06:11:17;;;;;;;4.40;3.95;;;;;;;11.22;81.87;100983.41;5059419;28;20037;-49
2022/06/05 06:13:43;;;;;;;6.40;4.43;;;;;;;11.22;81.44;100978.84;5076472;28;20035;-49
2022/06/05 06:16:09;;;;;;;3.95;3.50;;;;;;;11.30;81.36;100993.22;5075413;28;20503;-49
2022/06/05 06:18:35;;;;;;;4.90;4.32;;;;;;;11.33;80.82;100982.06;5077782;28;20033;-48
2022/06/05 06:21:01;;;;;;;5.15;4.65;;;;;;;11.14;80.29;100940.47;5080080;28;20455;-48
2022/06/05 06:23:26;;;;;;;10.15;8.77;;;;;;;11.33;80.59;100966.81;5076357;28;20100;-48
2022/06/05 06:25:52;;;;;;;6.28;5.50;;;;;;;11.40;80.97;100983.88;5055950;28;20443;-49
2022/06/05 06:28:18;;;;;;;4.68;4.30;;;;;;;11.37;81.07;100973.47;5074031;28;20105;-49
2022/06/05 06:30:44;;;;;;;4.85;3.70;;;;;;;11.40;80.39;100978.47;5073463;28;20418;-47
2022/06/05 06:33:10;;;;;;;5.47;4.97;;;;;;;11.36;80.65;100968.28;5073700;28;20032;-47
2022/06/05 06:35:36;;;;;;;6.32;4.80;;;;;;;11.41;80.78;100963.19;5055701;28;20032;-48
2022/06/05 06:38:04;;;;;;;6.40;5.80;;;;;;;11.31;81.82;100946.47;5055610;28;20056;-48
2022/06/05 06:40:29;;;;;;;7.68;6.88;;;;;;;11.30;81.35;100942.97;5056200;28;20025;-48
2022/06/05 06:42:56;;;;;;;6.07;5.68;;;;;;;11.06;83.79;100929.81;5073426;28;20492;-48
2022/06/05 06:45:23;;;;;;;7.20;6.57;;;;;;;10.90;83.38;100907.50;5055113;28;20032;-49
2022/06/05 06:47:48;;;;;;;7.50;6.03;;;;;;;11.02;84.81;100922.13;5055994;28;20036;-51
2022/06/05 06:50:15;;;;;;;7.13;6.18;;;;;;;10.97;84.43;100919.13;5059352;28;20029;-49
2022/06/05 06:52:41;;;;;;;7.35;6.75;;;;;;;11.06;84.46;100908.31;5077604;28;20477;-50
2022/06/05 06:55:11;;;;;;;6.20;5.60;;;;;;;11.16;84.21;100912.41;5077676;28;20060;-48
2022/06/05 06:57:36;;;;;;;7.65;5.97;;;;;;;11.21;83.01;100917.19;5059641;28;20159;-48
2022/06/05 07:00:04;;;;;;;7.38;6.25;;;;;;;11.19;83.00;100922.75;5077979;28;20074;-49
2022/06/05 07:02:30;;;;;;;6.10;5.57;;;;;;;11.04;83.97;100928.13;5042841;28;20032;-50
2022/06/05 07:04:56;;;;;;;7.18;6.60;;;;;;;11.00;83.40;100917.94;5077397;28;20032;-48
2022/06/05 07:07:22;;;;;;;8.30;6.32;;;;;;;11.04;84.54;100922.75;5078074;28;20028;-48
2022/06/05 07:09:47;;;;;;;11.40;7.07;;;;;;;11.01;83.96;100917.78;5059596;28;20036;-50
2022/06/05 07:12:13;;;;;;;10.55;7.88;;;;;;;10.99;84.55;100924.34;5060073;28;20032;-49
2022/06/05 07:14:39;;;;;;;8.00;7.22;;;;;;;11.07;85.62;100918.88;5077135;28;20199;-50
2022/06/05 07:17:04;;;;;;;8.23;7.47;;;;;;;10.96;85.14;100901.38;5058873;28;20362;-48
2022/06/05 07:19:30;;;;;;;10.02;7.53;;;;;;;11.13;84.80;100922.69;5059278;28;20079;-47
2022/06/05 07:21:56;;;;;;;7.57;6.88;;;;;;;11.11;84.62;100912.09;5059310;28;20449;-48
2022/06/05 07:24:22;;;;;;;7.35;5.70;;;;;;;11.16;83.90;100911.53;5077216;28;20041;-48
2022/06/05 07:26:48;;;;;;;8.68;7.55;;;;;;;11.32;84.20;100930.16;5059616;28;20105;-48
2022/06/05 07:29:14;;;;;;;9.30;6.80;;;;;;;11.38;83.44;100926.72;5059858;28;20028;-48
2022/06/05 07:31:39;;;;;;;11.02;7.43;;;;;;;11.41;83.65;100925.53;5077378;28;20074;-48
2022/06/05 07:34:07;;;;;;;9.90;7.80;;;;;;;11.39;83.10;100914.13;5077496;28;20041;-48
2022/06/05 07:36:33;;;;;;;9.50;8.00;;;;;;;11.40;82.88;100927.38;5044447;28;20040;-49
2022/06/05 07:39:02;;;;;;;8.70;7.85;;;;;;;11.44;83.04;100930.53;5061783;28;20470;-51
2022/06/05 07:41:31;;;;;;;9.52;8.60;;;;;;;11.45;83.58;100923.28;5061693;28;20504;-48
2022/06/05 07:43:58;;;;;;;10.45;8.23;;;;;;;11.44;82.65;100922.47;5078445;28;20025;-48
2022/06/05 07:46:25;;;;;;;13.10;8.30;;;;;;;11.50;83.03;100921.72;5059228;28;20091;-49
2022/06/05 07:48:51;;;;;;;8.98;7.38;;;;;;;11.47;83.41;100929.31;5076440;28;20384;-50
2022/06/05 07:54:29;;;;;;;9.48;6.13;;;;;;;11.52;82.55;100934.97;5061294;28;20068;-49
2022/06/05 07:56:57;;;;;;;11.57;8.60;;;;;;;11.46;82.29;100927.63;5076619;28;20039;-49
2022/06/05 07:59:24;;;;;;;11.52;8.35;;;;;;;11.20;83.75;100907.47;5058021;28;20081;-53
2022/06/05 08:01:50;;;;;;;8.70;7.32;;;;;;;11.35;83.70;100919.03;5074847;28;20105;-48
2022/06/05 08:04:16;;;;;;;9.68;7.32;;;;;;;11.50;83.00;100919.03;5075417;28;20059;-47
2022/06/05 08:06:42;;;;;;;8.57;7.65;;;;;;;11.39;83.54;100933.78;5040896;28;20033;-48
2022/06/05 08:09:08;;;;;;;11.07;7.25;;;;;;;11.42;83.91;100932.56;5075331;28;20392;-48
2022/06/05 08:11:35;;;;;;;7.75;7.07;;;;;;;11.38;83.92;100918.66;5075866;28;20024;-48
2022/06/05 08:14:01;;;;;;;7.90;7.18;;;;;;;11.55;83.40;100931.88;5059079;28;20035;-48
2022/06/05 08:16:28;;;;;;;10.68;6.78;;;;;;;11.52;83.34;100926.91;5058161;28;20040;-48
2022/06/05 08:18:54;;;;;;;10.32;7.20;;;;;;;11.40;83.02;100911.25;5058530;28;20554;-48
2022/06/05 08:21:21;;;;;;;8.07;6.82;;;;;;;11.49;83.39;100922.72;5060019;28;20082;-49
2022/06/05 08:23:47;;;;;;;10.63;6.75;;;;;;;11.32;83.19;100892.53;5064768;28;20051;-53
2022/06/05 08:26:13;;;;;;;10.00;6.88;;;;;;;11.63;82.51;100923.72;5099435;28;20032;-47
2022/06/05 08:28:40;;;;;;;15.30;8.07;;;;;;;11.51;83.18;100917.16;5081071;28;20072;-48
2022/06/05 08:31:07;;;;;;;9.30;7.38;;;;;;;11.51;84.15;100919.84;5079449;28;20024;-49
2022/06/05 08:33:33;;;;;;;12.13;6.65;;;;;;;11.38;84.21;100910.56;5096078;28;20028;-48
2022/06/05 08:35:59;;;;;;;7.40;6.70;;;;;;;11.55;83.56;100921.97;5095765;28;20070;-48
2022/06/05 08:41:37;;;;;;;9.40;6.70;;;;;;;11.51;84.10;100923.34;5066298;28;20384;-48
2022/06/05 08:44:33;;;;;;;8.20;7.38;;;;;;;11.55;83.62;100913.06;5064155;28;20472;-48
2022/06/05 08:47:26;;;;;;;7.93;6.70;;;;;;;11.69;83.21;100916.75;5063410;28;20035;-48
2022/06/05 08:50:03;;;;;;;8.52;7.00;;;;;;;11.75;82.53;100919.50;5080997;28;20369;-48
2022/06/05 08:52:49;;;;;;;9.77;6.53;;;;;;;11.77;82.11;100914.75;5094555;28;20158;-48
2022/06/05 08:55:23;;;;;;;10.57;7.13;;;;;;;11.80;82.18;100929.69;5094578;28;20028;-48
2022/06/05 08:57:57;;;;;;;;;;;;;;;11.81;82.53;100934.91;5095604;28;20039;-48
2022/06/05 09:00:32;;;;;;;9.68;7.10;;;;;;;11.77;82.04;100924.69;5094549;28;20041;-48
2022/06/05 09:03:10;;;;;;;8.52;7.68;;;;;;;11.80;82.34;100921.63;5095053;28;20032;-48
2022/06/05 09:05:39;;;;;;;11.32;7.10;;;;;;;11.81;82.57;100916.06;5094458;28;20039;-48
2022/06/05 09:08:13;;;;;;;9.30;6.53;;;;;;;11.78;82.13;100916.44;5094181;28;20468;-48
2022/06/05 09:10:57;;;;;;;8.13;6.28;;;;;;;11.84;81.68;100916.72;5076291;28;20040;-48
2022/06/05 09:13:44;;;;;;;6.10;5.53;;;;;;;11.91;82.15;100918.47;5060735;28;20027;-48
2022/06/05 09:16:23;;;;;;;7.63;6.82;;;;;;;11.92;81.75;100916.59;5076256;28;20035;-48
2022/06/05 09:18:49;;;;;;;9.43;6.45;;;;;;;11.85;82.26;100904.91;5094129;28;20040;-48
2022/06/05 09:21:39;;;;;;;7.43;6.72;;;;;;;11.95;82.06;100917.06;5076148;28;20477;-48
2022/06/05 09:24:12;;;;;;;9.93;8.18;;;;;;;11.86;82.20;100920.03;5064596;28;20489;-48
2022/06/05 09:27:10;;;;;;;12.18;8.00;;;;;;;11.70;83.38;100911.19;5077652;28;20035;-48
2022/06/05 09:29:49;;;;;;;13.18;7.35;;;;;;;11.71;83.86;100891.31;5065174;28;20024;-51
2022/06/05 09:32:37;;;;;;;10.13;8.38;;;;;;;11.77;83.56;100903.16;5095798;28;20059;-48
2022/06/05 09:35:26;;;;;;;8.13;7.38;;;;;;;11.80;83.42;100900.09;5094799;28;20499;-48
2022/06/05 09:37:58;;;;;;;9.93;8.23;;;;;;;11.90;83.43;100908.72;5080359;28;20068;-48
2022/06/05 09:40:30;;;;;;;13.75;8.20;;;;;;;11.91;83.08;100890.72;5094672;28;20027;-49
2022/06/05 09:43:20;;;;;;;8.57;7.72;;;;;;;12.09;82.26;100903.72;5093810;28;20028;-49
2022/06/05 09:46:11;;;;;;;8.07;6.85;;;;;;;12.01;82.80;100902.81;5093814;28;20024;-49
2022/06/05 09:48:54;;;;;;;10.95;7.40;;;;;;;11.88;83.38;100877.63;5064543;28;20020;-50
2022/06/05 09:51:20;;;;;;;12.73;8.40;;;;;;;12.11;83.03;100894.44;5075436;28;20048;-48
2022/06/05 09:54:10;;;;;;;11.05;8.35;;;;;;;12.17;82.34;100903.59;5093826;28;20111;-48
2022/06/05 10:00:02;;;;;;;6.88;6.20;;;;;;;12.12;82.72;100888.00;5067130;28;20168;-49
2022/06/05 10:02:29;;;;;;;6.45;5.82;;;;;;;12.29;82.70;100888.56;5075441;28;20032;-50
2022/06/05 10:04:55;;;;;;;12.85;7.10;;;;;;;12.32;82.00;100885.50;5093696;28;20047;-48
2022/06/05 10:07:47;;;;;;;7.43;6.75;;;;;;;12.39;81.58;100888.25;5093638;28;20035;-48
2022/06/05 10:10:19;;;;;;;7.30;6.55;;;;;;;12.50;81.52;100887.72;5079527;28;20039;-49
2022/06/05 10:12:51;;;;;;;7.63;6.90;;;;;;;12.58;81.45;100876.78;5075355;28;20031;-48
2022/06/05 10:15:30;;;;;;;7.28;6.57;;;;;;;12.63;81.38;100876.22;5076123;28;20054;-49
2022/06/05 10:18:01;;;;;;;8.55;6.28;;;;;;;12.67;81.17;100876.66;5094044;28;20040;-49
2022/06/05 10:20:54;;;;;;;7.65;6.03;;;;;;;12.59;80.88;100864.13;5076781;28;20035;-47
2022/06/05 10:23:35;;;;;;;6.60;5.82;;;;;;;12.72;81.02;100869.63;5078828;28;20031;-49
2022/06/05 10:26:26;;;;;;;7.43;6.72;;;;;;;12.76;81.03;100860.13;5073674;28;20086;-51
2022/06/05 10:29:08;;;;;;;8.85;6.65;;;;;;;12.89;80.65;100866.59;5058957;28;20032;-48
2022/06/05 10:31:36;;;;;;;7.72;6.32;;;;;;;12.97;80.03;100872.66;5073881;28;20047;-49
2022/06/05 10:34:12;;;;;;;7.65;6.63;;;;;;;12.94;80.27;100862.28;5055952;28;20106;-48
2022/06/05 10:37:03;;;;;;;6.35;5.85;;;;;;;12.98;80.32;100860.88;5055846;28;20032;-50
2022/06/05 10:40:09;;;;;;;8.55;5.90;;;;;;;12.93;80.77;100866.00;5059391;28;20476;-52
2022/06/05 10:42:45;;;;;;;7.40;6.07;;;;;;;13.08;80.57;100867.75;5047641;28;20056;-51
2022/06/05 10:45:50;;;;;;;8.45;6.25;;;;;;;13.02;79.87;100865.84;5073769;28;20044;-48
2022/06/05 10:48:42;;;;;;;9.18;5.95;;;;;;;13.02;81.21;100872.09;5047498;28;20428;-50
2022/06/05 10:51:28;;;;;;;8.43;6.10;;;;;;;12.87;81.74;100874.91;5059200;28;20089;-50
2022/06/05 10:54:20;;;;;;;6.82;5.95;;;;;;;12.66;81.35;100846.16;5073191;28;20044;-48
2022/06/05 10:56:54;;;;;;;6.20;5.60;;;;;;;12.66;83.19;100856.09;5058413;28;20024;-48
2022/06/05 10:59:48;;;;;;;10.20;6.43;;;;;;;12.79;81.84;100862.41;5073240;28;20036;-48
2022/06/05 11:02:39;;;;;;;11.23;6.45;;;;;;;12.91;82.56;100849.22;5058350;28;20029;-48
2022/06/05 11:05:31;;;;;;;6.22;5.60;;;;;;;13.17;81.55;100861.16;5058153;28;20025;-48
2022/06/05 11:08:28;;;;;;;8.45;6.43;;;;;;;13.21;80.90;100859.72;5060207;28;20136;-49
2022/06/05 11:14:31;;;;;;;6.35;5.75;;;;;;;13.28;80.34;100874.06;5064545;28;20382;-50
2022/06/05 11:17:19;;;;;;;11.95;5.95;;;;;;;13.22;79.95;100868.63;5063972;28;20046;-53
2022/06/05 11:20:09;;;;;;;6.55;6.05;;;;;;;13.17;80.14;100872.78;5077336;28;20024;-51
2022/06/05 11:22:47;;;;;;;8.38;5.90;;;;;;;13.11;80.16;100857.41;5044056;28;20028;-48
2022/06/05 11:25:23;;;;;;;7.32;6.20;;;;;;;13.07;81.35;100874.16;5072958;28;20044;-49
2022/06/05 11:28:17;;;;;;;6.30;5.68;;;;;;;13.08;81.00;100878.53;5055456;28;20036;-48
2022/06/05 11:31:13;;;;;;;7.50;6.07;;;;;;;13.07;81.13;100882.25;5058071;28;20028;-48
2022/06/05 11:33:55;;;;;;;4.30;3.97;;;;;;;13.14;80.78;100880.44;5054565;28;20025;-48
2022/06/05 11:36:30;;;;;;;7.65;5.18;;;;;;;13.11;80.41;100878.13;5074346;28;20040;-49
2022/06/05 11:39:23;;;;;;;7.68;4.97;;;;;;;13.05;81.54;100879.75;5076167;28;20541;-50
2022/06/05 11:42:26;;;;;;;5.95;5.15;;;;;;;12.96;81.11;100886.34;5045313;28;20048;-49
2022/06/05 11:45:00;;;;;;;5.95;5.32;;;;;;;12.29;81.87;100782.72;5064136;28;20024;-48
2022/06/05 11:47:35;;;;;;;11.15;5.88;;;;;;;13.01;81.24;100881.19;5058003;28;20119;-48
2022/06/05 11:50:06;;;;;;;;;;;;;;;13.14;81.69;100881.25;5076545;28;20035;-50
2022/06/05 11:52:58;;;;;;;7.03;5.18;;;;;;;13.19;81.18;100877.97;5075912;28;19908;-50
2022/06/05 11:55:35;;;;;;;5.85;5.28;;;;;;;13.23;80.87;100860.34;5060971;28;20047;-48
2022/06/05 11:58:09;;;;;;;6.78;4.72;;;;;;;13.34;80.72;100872.47;5076100;28;20024;-48
2022/06/05 12:00:41;;;;;;;6.00;5.40;;;;;;;13.24;80.75;100851.22;5076022;28;20469;-48
2022/06/05 12:03:32;;;;;;;6.88;5.03;;;;;;;13.31;81.36;100856.66;5058535;28;20111;-48
2022/06/05 12:06:27;;;;;;;5.03;4.10;;;;;;;13.42;81.04;100858.78;5076139;28;20035;-48
2022/06/05 12:09:00;;;;;;;4.35;3.97;;;;;;;13.53;80.27;100860.06;5045609;28;20381;-45
2022/06/05 12:11:38;;;;;;;4.90;4.43;;;;;;;13.55;80.25;100858.81;5058035;28;20115;-49